M I D A S
Marine Information and Data Acquisition System
Tripno 1072 of the Zeeleeuw from 2006-04-19 07:21:08 to 2006-04-19 10:26:23
Back to CruiseResearch ActivitiesStationsMapUnderway DataData graphs

EquipmentUnitsComment
TimeDGPSUTC
LatitudeDGPSDM.mWGS84
LongitudeDGPSDM.mWGS84
HeadingGyrodeg 
SOGDGPSknotsSpeed over ground
COGDGPSdegCourse over ground
DepthEcho soundermeters200 kHz
Missing or incorrect values are displayed as -999
Navigation data collected by the RV Zeeleeuw from 2006-04-19 07:20:00 to 2006-04-19 10:39:15
                                                                                    Next 1000 lines
Time Latitude Longitude Heading SOG COG Depth
2006-04-19 07:20:09 51°13.602 2°56.095 109.1 1 290 5.6
2006-04-19 07:20:14 51°13.602 2°56.092 109 1.5 289 5.7
2006-04-19 07:20:20 51°13.604 2°56.087 108.9 1.9 289 6
2006-04-19 07:20:25 51°13.605 2°56.083 109 2.2 287 -999
2006-04-19 07:20:30 51°13.606 2°56.078 109.2 2.4 289 -999
2006-04-19 07:20:35 51°13.607 2°56.072 109.3 2.6 288 -999
2006-04-19 07:20:40 51°13.608 2°56.066 109.5 2.8 289 -999
2006-04-19 07:20:45 51°13.61 2°56.06 109.5 3 289 -999
2006-04-19 07:20:50 51°13.611 2°56.053 109.5 3.2 289 -999
2006-04-19 07:20:55 51°13.613 2°56.046 109.4 3.3 288 -999
2006-04-19 07:21:00 51°13.614 2°56.039 109.1 3.4 288 -999
2006-04-19 07:21:05 51°13.616 2°56.031 108.8 3.5 287 -999
2006-04-19 07:21:10 51°13.617 2°56.024 108.5 3.5 287 -999
2006-04-19 07:21:15 51°13.618 2°56.016 108.5 3.8 286 -999
2006-04-19 07:21:20 51°13.62 2°56.007 109.3 4.1 288 -999
2006-04-19 07:21:25 51°13.622 2°55.998 110.6 4.1 288 -999
2006-04-19 07:21:30 51°13.623 2°55.99 111.8 4 290 -999
2006-04-19 07:21:35 51°13.625 2°55.982 112.9 4 289 -999
2006-04-19 07:21:40 51°13.627 2°55.974 114 4 291 -999
2006-04-19 07:21:45 51°13.629 2°55.966 115.2 3.9 291 -999
2006-04-19 07:21:50 51°13.632 2°55.958 116.4 4 293 -999
2006-04-19 07:21:55 51°13.634 2°55.95 117.4 4 293 -999
2006-04-19 07:22:00 51°13.636 2°55.941 118 4.1 294 -999
2006-04-19 07:22:05 51°13.638 2°55.933 118.6 4.1 294 -999
2006-04-19 07:22:10 51°13.641 2°55.925 119.3 4.2 296 -999
2006-04-19 07:22:15 51°13.643 2°55.917 120 4.2 296 -999
2006-04-19 07:22:20 51°13.646 2°55.908 120.7 4.2 297 -999
2006-04-19 07:22:25 51°13.649 2°55.9 121.5 4.2 297 -999
2006-04-19 07:22:30 51°13.651 2°55.892 122.3 4.2 299 -999
2006-04-19 07:22:35 51°13.654 2°55.884 123.2 4.3 299 -999
2006-04-19 07:22:40 51°13.657 2°55.875 124.1 4.3 300 -999
2006-04-19 07:22:45 51°13.66 2°55.867 124.9 4.3 301 -999
2006-04-19 07:22:50 51°13.663 2°55.859 125.5 4.3 301 -999
2006-04-19 07:22:55 51°13.667 2°55.851 125.6 4.3 302 -999
2006-04-19 07:23:00 51°13.67 2°55.842 125.6 4.5 302 -999
2006-04-19 07:23:05 51°13.673 2°55.834 125.6 4.7 302 -999
2006-04-19 07:23:10 51°13.677 2°55.824 125.4 4.9 302 -999
2006-04-19 07:23:15 51°13.68 2°55.815 125.1 4.9 302 -999
2006-04-19 07:23:20 51°13.684 2°55.806 124.7 4.8 302 -999
2006-04-19 07:23:25 51°13.687 2°55.798 124.4 4.5 302 -999
2006-04-19 07:23:30 51°13.69 2°55.79 123.9 4.2 302 -999
2006-04-19 07:23:35 51°13.693 2°55.782 123.3 4.1 302 -999
2006-04-19 07:23:40 51°13.695 2°55.775 122.5 3.9 302 -999
2006-04-19 07:23:45 51°13.698 2°55.768 121.8 3.7 301 -999
2006-04-19 07:23:50 51°13.701 2°55.762 120.4 3.6 301 4.7
2006-04-19 07:23:54 51°13.703 2°55.756 119.5 3.5 299 4.8
2006-04-19 07:24:00 51°13.706 2°55.749 118.3 3.3 300 10.5
2006-04-19 07:24:04 51°13.707 2°55.744 117 3.2 300 10.7
2006-04-19 07:24:09 51°13.709 2°55.739 115.4 2.7 297 10.7
2006-04-19 07:24:15 51°13.71 2°55.734 113.2 2.4 299 -999
2006-04-19 07:24:20 51°13.712 2°55.73 109.7 1.8 298 4.8
2006-04-19 07:24:25 51°13.713 2°55.728 106.5 1.3 304 -999
2006-04-19 07:24:30 51°13.714 2°55.727 102.7 0.8 313 -999
2006-04-19 07:24:35 51°13.715 2°55.727 96.9 0.6 343 -999
2006-04-19 07:24:40 51°13.716 2°55.728 91 0.6 25 -999
2006-04-19 07:24:45 51°13.717 2°55.729 86 0.8 41 -999
2006-04-19 07:24:50 51°13.718 2°55.731 79.5 1.1 49 10.7
2006-04-19 07:24:54 51°13.719 2°55.733 73.3 1.3 50 5
2006-04-19 07:25:00 51°13.72 2°55.736 67.5 1.5 49 10.6
2006-04-19 07:25:04 51°13.721 2°55.738 61.8 1.5 44 10.5
2006-04-19 07:25:09 51°13.723 2°55.74 58 1.4 39 10.5
2006-04-19 07:25:14 51°13.724 2°55.742 54.9 1.2 38 4.7
2006-04-19 07:25:20 51°13.725 2°55.743 52.2 0.7 29 -999
2006-04-19 07:25:25 51°13.726 2°55.742 49.3 0.4 10 10.4
2006-04-19 07:25:30 51°13.726 2°55.742 46.8 0.2 287 10.4
2006-04-19 07:25:35 51°13.725 2°55.741 45 0.5 237 10.4
2006-04-19 07:25:39 51°13.725 2°55.739 43.7 0.9 233 10.4
2006-04-19 07:25:45 51°13.723 2°55.737 42.7 1.3 228 10.5
2006-04-19 07:25:50 51°13.722 2°55.734 41.8 1.6 224 -999
2006-04-19 07:25:55 51°13.72 2°55.731 40.6 1.8 224 -999
2006-04-19 07:26:00 51°13.718 2°55.728 39.5 1.7 223 -999
2006-04-19 07:26:05 51°13.716 2°55.726 38.5 1.6 227 -999
2006-04-19 07:26:10 51°13.716 2°55.724 37.6 1.1 229 -999
2006-04-19 07:26:15 51°13.716 2°55.724 35.2 0.5 240 -999
2006-04-19 07:26:20 51°13.716 2°55.723 30.9 0.3 330 -999
2006-04-19 07:26:25 51°13.718 2°55.723 25.4 0.8 2 -999
2006-04-19 07:26:30 51°13.72 2°55.724 19.1 1.3 1 -999
2006-04-19 07:26:35 51°13.722 2°55.723 12.1 1.8 359 -999
2006-04-19 07:26:40 51°13.725 2°55.723 4.7 2.1 354 -999
2006-04-19 07:26:45 51°13.729 2°55.722 359 2.4 349 4.8
2006-04-19 07:26:50 51°13.732 2°55.72 351.2 2.7 345 -999
2006-04-19 07:26:55 51°13.736 2°55.717 345.4 2.9 340 -999
2006-04-19 07:27:00 51°13.74 2°55.715 341.6 3.1 336 10.5
2006-04-19 07:27:04 51°13.743 2°55.712 338.5 3.4 333 10.3
2006-04-19 07:27:08 51°13.747 2°55.708 335.5 3.8 332 10
2006-04-19 07:27:14 51°13.753 2°55.703 334 4.1 330 9.9
2006-04-19 07:27:20 51°13.759 2°55.697 333.8 4.6 331 9.9
2006-04-19 07:27:24 51°13.764 2°55.692 333.8 5 329 10
2006-04-19 07:27:30 51°13.772 2°55.685 334.5 5.3 332 9.9
2006-04-19 07:27:34 51°13.777 2°55.68 334.8 5.6 330 9.6
2006-04-19 07:27:39 51°13.785 2°55.674 334.9 5.8 331 10
2006-04-19 07:27:44 51°13.792 2°55.668 335.1 6.1 331 10.2
2006-04-19 07:27:49 51°13.8 2°55.661 335.9 6.3 334 10.2
2006-04-19 07:27:55 51°13.809 2°55.654 336.5 6.4 333 10.1
2006-04-19 07:27:59 51°13.816 2°55.649 336.9 6.5 334 10
2006-04-19 07:28:04 51°13.824 2°55.642 337.2 6.5 333 10
2006-04-19 07:28:10 51°13.834 2°55.635 337.2 6.6 334 10
2006-04-19 07:28:14 51°13.84 2°55.629 337.2 6.6 333 10
2006-04-19 07:28:20 51°13.85 2°55.621 337.2 6.7 333 -999
2006-04-19 07:28:24 51°13.857 2°55.616 337.2 6.7 333 -999
2006-04-19 07:28:30 51°13.867 2°55.608 337.2 6.7 333 10
2006-04-19 07:28:35 51°13.875 2°55.601 337.2 6.8 333 -999
2006-04-19 07:28:40 51°13.884 2°55.594 337.6 6.8 333 -999
2006-04-19 07:28:45 51°13.892 2°55.587 338.1 6.7 334 10
2006-04-19 07:28:50 51°13.9 2°55.581 338.3 6.6 334 -999
2006-04-19 07:28:55 51°13.908 2°55.575 338.3 6.5 334 -999
2006-04-19 07:29:00 51°13.916 2°55.569 338.8 6.4 335 -999
2006-04-19 07:29:05 51°13.924 2°55.563 339.5 6.3 336 -999
2006-04-19 07:29:09 51°13.93 2°55.558 339.7 6.3 336 10
2006-04-19 07:29:15 51°13.94 2°55.552 340.1 6.2 336 -999
2006-04-19 07:29:20 51°13.947 2°55.546 340.7 6.2 337 9.9
2006-04-19 07:29:24 51°13.953 2°55.542 340.7 6.1 336 9.9
2006-04-19 07:29:29 51°13.961 2°55.536 340.7 6.1 336 9.9
2006-04-19 07:29:34 51°13.969 2°55.531 340.6 6 336 9.9
2006-04-19 07:29:39 51°13.977 2°55.526 340.4 6 336 9.9
2006-04-19 07:29:45 51°13.986 2°55.519 340.4 6 336 9.9
2006-04-19 07:29:50 51°13.993 2°55.514 340.4 6 336 9.9
2006-04-19 07:29:54 51°13.999 2°55.509 340.4 5.9 336 9.9
2006-04-19 07:30:00 51°14.008 2°55.503 340.1 5.9 336 9.9
2006-04-19 07:30:04 51°14.014 2°55.499 340 5.9 336 9.9
2006-04-19 07:30:10 51°14.023 2°55.492 339.9 5.8 336 9.9
2006-04-19 07:30:14 51°14.029 2°55.488 339.8 5.8 336 9.9
2006-04-19 07:30:19 51°14.036 2°55.482 339.6 5.8 335 9.9
2006-04-19 07:30:25 51°14.045 2°55.476 339.4 5.8 335 9.9
2006-04-19 07:30:30 51°14.052 2°55.47 339 5.8 335 9.9
2006-04-19 07:30:35 51°14.059 2°55.465 338.6 5.8 335 -999
2006-04-19 07:30:39 51°14.065 2°55.461 338.4 5.8 335 9.9
2006-04-19 07:30:44 51°14.072 2°55.455 338.4 5.7 334 9.9
2006-04-19 07:30:50 51°14.081 2°55.449 338.3 5.7 335 9.9
2006-04-19 07:30:55 51°14.088 2°55.443 337.9 5.7 334 9.9
2006-04-19 07:30:59 51°14.094 2°55.438 337.3 5.8 334 9.9
2006-04-19 07:31:05 51°14.102 2°55.431 337 5.8 334 -999
2006-04-19 07:31:10 51°14.11 2°55.426 337 5.8 334 -999
2006-04-19 07:31:15 51°14.117 2°55.421 337.5 5.7 334 -999
2006-04-19 07:31:20 51°14.124 2°55.415 337.1 5.8 333 9.9
2006-04-19 07:31:25 51°14.132 2°55.408 335.8 6.2 332 9.9
2006-04-19 07:31:30 51°14.14 2°55.401 334.9 6.6 330 9.8
2006-04-19 07:31:34 51°14.146 2°55.394 333.9 7 330 9.9
2006-04-19 07:31:40 51°14.157 2°55.384 333 7.3 329 9.8
2006-04-19 07:31:45 51°14.166 2°55.375 332.2 7.5 327 9.8
2006-04-19 07:31:50 51°14.175 2°55.365 331.2 7.8 327 9.8
2006-04-19 07:31:54 51°14.182 2°55.357 330.7 8 326 9.8
2006-04-19 07:32:00 51°14.193 2°55.345 330.2 8.2 325 -999
2006-04-19 07:32:05 51°14.203 2°55.334 329.5 8.3 325 -999
2006-04-19 07:32:10 51°14.212 2°55.323 328.3 8.5 323 -999
2006-04-19 07:32:15 51°14.221 2°55.311 326.8 8.6 321 -999
2006-04-19 07:32:20 51°14.231 2°55.299 325.9 8.7 321 9.8
2006-04-19 07:32:25 51°14.24 2°55.286 325 8.7 319 -999
2006-04-19 07:32:30 51°14.249 2°55.273 323.4 8.8 318 9.8
2006-04-19 07:32:35 51°14.258 2°55.26 321.6 8.8 316 -999
2006-04-19 07:32:40 51°14.267 2°55.246 320.6 8.9 316 9.8
2006-04-19 07:32:45 51°14.275 2°55.232 319.2 8.9 314 10.3
2006-04-19 07:32:50 51°14.283 2°55.217 317.9 9 313 -999
2006-04-19 07:32:54 51°14.29 2°55.205 316.1 9 311 9.8
2006-04-19 07:33:00 51°14.299 2°55.187 314.8 9 310 9.8
2006-04-19 07:33:05 51°14.307 2°55.171 313.9 9 310 -999
2006-04-19 07:33:10 51°14.315 2°55.156 313.3 9 308 -999
2006-04-19 07:33:15 51°14.323 2°55.14 313 9.1 308 10
2006-04-19 07:33:20 51°14.331 2°55.124 312.8 9.1 308 9.9
2006-04-19 07:33:24 51°14.337 2°55.111 312.6 9.1 308 9.9
2006-04-19 07:33:29 51°14.344 2°55.095 312.5 9.1 308 9.9
2006-04-19 07:33:34 51°14.352 2°55.079 311.5 9.1 306 9.9
2006-04-19 07:33:40 51°14.361 2°55.059 310.8 9.2 305 10
2006-04-19 07:33:44 51°14.367 2°55.045 309.6 9.3 304 10
2006-04-19 07:33:49 51°14.374 2°55.028 308.6 9.5 303 9.8
2006-04-19 07:33:54 51°14.38 2°55.009 306.9 9.7 301 9.8
2006-04-19 07:33:59 51°14.387 2°54.99 304.5 10 298 9.8
2006-04-19 07:34:05 51°14.394 2°54.965 302.3 10.2 295 9.9
2006-04-19 07:34:09 51°14.398 2°54.948 299.4 10.4 292 9.9
2006-04-19 07:34:14 51°14.403 2°54.926 296.9 10.5 290 10
2006-04-19 07:34:20 51°14.409 2°54.899 295.1 10.8 288 9.8
2006-04-19 07:34:25 51°14.413 2°54.875 293 11.1 286 9.7
2006-04-19 07:34:30 51°14.416 2°54.851 289.9 11.3 282 10
2006-04-19 07:34:34 51°14.418 2°54.83 287.2 11.4 281 9.9
2006-04-19 07:34:39 51°14.421 2°54.805 285.3 11.7 278 9.7
2006-04-19 07:34:45 51°14.423 2°54.774 283.6 11.8 278 10.1
2006-04-19 07:34:50 51°14.424 2°54.748 280.7 11.9 274 9.7
2006-04-19 07:34:54 51°14.424 2°54.727 278.3 12 273 9.6
2006-04-19 07:35:00 51°14.425 2°54.694 276.9 12.1 271 9.9
2006-04-19 07:35:05 51°14.425 2°54.668 275.8 12.2 270 10
2006-04-19 07:35:10 51°14.424 2°54.64 274 12.4 268 10.1
2006-04-19 07:35:14 51°14.423 2°54.618 271.8 12.6 266 9.8
2006-04-19 07:35:19 51°14.42 2°54.59 269.4 12.7 263 10.1
2006-04-19 07:35:24 51°14.417 2°54.563 267.2 12.7 261 10
2006-04-19 07:35:30 51°14.412 2°54.53 263.8 12.8 256 9.7
2006-04-19 07:35:34 51°14.407 2°54.508 259.3 12.9 252 9.9
2006-04-19 07:35:40 51°14.399 2°54.477 254.7 12.9 248 9.5
2006-04-19 07:35:44 51°14.393 2°54.456 250.3 12.9 244 9.3
2006-04-19 07:35:49 51°14.385 2°54.431 246.8 13 242 9.2
2006-04-19 07:35:55 51°14.373 2°54.401 244.6 13 241 9.1
2006-04-19 07:35:59 51°14.366 2°54.381 242 13.1 238 9.1
2006-04-19 07:36:05 51°14.355 2°54.352 240.1 13.1 238 9.1
2006-04-19 07:36:09 51°14.347 2°54.332 240.5 13.2 239 9.1
2006-04-19 07:36:14 51°14.339 2°54.306 243 13.2 241 9
2006-04-19 07:36:20 51°14.328 2°54.275 244.3 13.2 241 9
2006-04-19 07:36:24 51°14.321 2°54.255 244.5 13.2 241 9
2006-04-19 07:36:30 51°14.31 2°54.224 244.3 13.3 240 8.9
2006-04-19 07:36:34 51°14.302 2°54.204 243.4 13.3 240 8.9
2006-04-19 07:36:39 51°14.293 2°54.178 242.7 13.3 240 9
2006-04-19 07:36:45 51°14.283 2°54.148 242.4 13.3 240 8.9
2006-04-19 07:36:49 51°14.275 2°54.127 242.8 13.3 240 8.9
2006-04-19 07:36:54 51°14.267 2°54.102 243.4 13.3 241 8.8
2006-04-19 07:36:59 51°14.258 2°54.075 244.6 13.3 242 8.8
2006-04-19 07:37:05 51°14.248 2°54.044 245.6 13.3 243 8.8
2006-04-19 07:37:10 51°14.24 2°54.018 246.5 13.3 244 8.8
2006-04-19 07:37:14 51°14.234 2°53.996 247.5 13.2 245 8.8
2006-04-19 07:37:20 51°14.224 2°53.965 248.1 13.2 243 8.8
2006-04-19 07:37:25 51°14.215 2°53.939 246.5 13.3 243 8.8
2006-04-19 07:37:30 51°14.206 2°53.914 244.2 13.2 239 8.7
2006-04-19 07:37:34 51°14.198 2°53.894 242.8 13.2 240 8.8
2006-04-19 07:37:40 51°14.187 2°53.864 242.2 13.2 238 8.7
2006-04-19 07:37:44 51°14.179 2°53.844 241.5 13.2 239 8.8
2006-04-19 07:37:50 51°14.168 2°53.814 241.6 13.2 239 8.8
2006-04-19 07:37:54 51°14.16 2°53.794 241.4 13.2 239 8.8
2006-04-19 07:38:00 51°14.149 2°53.764 241.8 13.2 240 8.8
2006-04-19 07:38:04 51°14.142 2°53.744 242.4 13.3 240 8.8
2006-04-19 07:38:09 51°14.133 2°53.718 243.1 13.2 242 8.8
2006-04-19 07:38:14 51°14.125 2°53.692 244 13.2 242 8.9
2006-04-19 07:38:20 51°14.115 2°53.66 245.3 13.3 244 8.9
2006-04-19 07:38:24 51°14.109 2°53.64 246.9 13.3 244 8.9
2006-04-19 07:38:29 51°14.101 2°53.613 247.6 13.2 245 8.9
2006-04-19 07:38:34 51°14.093 2°53.587 247.3 13.2 243 8.9
2006-04-19 07:38:40 51°14.083 2°53.556 246.8 13.1 244 8.9
2006-04-19 07:38:44 51°14.076 2°53.536 246.2 13.1 241 9
2006-04-19 07:38:50 51°14.066 2°53.505 245.3 13.1 242 9
2006-04-19 07:38:54 51°14.058 2°53.486 243.8 13.1 238 9
2006-04-19 07:38:59 51°14.049 2°53.46 242.9 13.2 240 9
2006-04-19 07:39:05 51°14.037 2°53.431 242.2 13.1 238 9
2006-04-19 07:39:09 51°14.03 2°53.411 241.2 13.1 237 9
2006-04-19 07:39:14 51°14.02 2°53.386 240.6 13.1 239 9.1
2006-04-19 07:39:18 51°14.012 2°53.367 240.8 13.1 238 9.1
2006-04-19 07:39:24 51°14.001 2°53.337 241.1 13.2 240 9.1
2006-04-19 07:39:30 51°13.99 2°53.307 242.1 13.1 240 9.1
2006-04-19 07:39:34 51°13.983 2°53.287 243.1 13.1 240 9.1
2006-04-19 07:39:40 51°13.972 2°53.256 243.7 13.2 241 9.1
2006-04-19 07:39:44 51°13.965 2°53.236 244.5 13.2 242 9.1
2006-04-19 07:39:49 51°13.957 2°53.21 244.9 13.2 242 9.2
2006-04-19 07:39:54 51°13.948 2°53.184 245.3 13.2 242 9.2
2006-04-19 07:40:00 51°13.938 2°53.153 245.5 13.2 243 9.3
2006-04-19 07:40:05 51°13.929 2°53.128 245.5 13.2 241 9.3
2006-04-19 07:40:09 51°13.922 2°53.107 245.2 13.2 241 9.4
2006-04-19 07:40:14 51°13.913 2°53.082 244.3 13.2 240 9.3
2006-04-19 07:40:19 51°13.904 2°53.057 243.2 13.2 240 9.4
2006-04-19 07:40:24 51°13.894 2°53.032 242.3 13.2 238 9.4
2006-04-19 07:40:28 51°13.887 2°53.012 241.5 13.2 239 9.4
2006-04-19 07:40:35 51°13.874 2°52.977 241.7 13.2 238 9.4
2006-04-19 07:40:40 51°13.865 2°52.952 241.9 13.2 240 9.5
2006-04-19 07:40:44 51°13.857 2°52.932 242.4 13.2 239 9.4
2006-04-19 07:40:50 51°13.847 2°52.901 243.2 13.3 242 9.4
2006-04-19 07:40:54 51°13.839 2°52.881 244.6 13.2 241 9.5
2006-04-19 07:41:00 51°13.83 2°52.849 244.7 13.2 243 9.5
2006-04-19 07:41:05 51°13.821 2°52.823 245.2 13.3 242 9.5
2006-04-19 07:41:10 51°13.812 2°52.798 245.6 13.2 243 9.5
2006-04-19 07:41:14 51°13.805 2°52.777 245.6 13.2 242 9.5
2006-04-19 07:41:20 51°13.795 2°52.746 245.1 13.3 242 9.5
2006-04-19 07:41:25 51°13.786 2°52.721 244.7 13.2 240 9.5
2006-04-19 07:41:30 51°13.777 2°52.695 243.8 13.1 240 9.6
2006-04-19 07:41:34 51°13.769 2°52.675 242.8 13.2 240 9.5
2006-04-19 07:41:40 51°13.758 2°52.645 242 13.3 239 9.5
2006-04-19 07:41:44 51°13.75 2°52.625 241.9 13.2 238 9.6
2006-04-19 07:41:49 51°13.74 2°52.601 241.3 13.2 238 9.5
2006-04-19 07:41:54 51°13.73 2°52.576 240.9 13.3 238 9.5
2006-04-19 07:41:59 51°13.721 2°52.551 241.1 13.2 239 9.6
2006-04-19 07:42:04 51°13.711 2°52.526 241.2 13.2 238 9.6
2006-04-19 07:42:10 51°13.7 2°52.496 241.7 13.3 240 9.5
2006-04-19 07:42:14 51°13.693 2°52.475 242.6 13.2 240 9.6
2006-04-19 07:42:20 51°13.682 2°52.445 243.3 13.2 241 9.6
2006-04-19 07:42:24 51°13.675 2°52.424 243.8 13.2 241 9.6
2006-04-19 07:42:30 51°13.665 2°52.394 244.5 13.2 242 9.6
2006-04-19 07:42:34 51°13.658 2°52.373 245 13.2 241 9.7
2006-04-19 07:42:39 51°13.649 2°52.347 245 13.2 242 9.7
2006-04-19 07:42:45 51°13.638 2°52.316 245.1 13.2 241 9.8
2006-04-19 07:42:49 51°13.632 2°52.296 244.3 13.2 242 9.8
2006-04-19 07:42:54 51°13.622 2°52.271 243.6 13.2 239 9.8
2006-04-19 07:43:00 51°13.611 2°52.241 242.4 13.2 239 9.8
2006-04-19 07:43:04 51°13.603 2°52.221 241.3 13.2 238 9.8
2006-04-19 07:43:10 51°13.591 2°52.192 240.3 13.2 236 9.9
2006-04-19 07:43:14 51°13.583 2°52.173 239.6 13.1 237 9.8
2006-04-19 07:43:20 51°13.57 2°52.144 238.6 13.1 234 9.8
2006-04-19 07:43:25 51°13.56 2°52.12 238 13.2 236 9.8
2006-04-19 07:43:30 51°13.55 2°52.096 238.5 13.1 236 9.7
2006-04-19 07:43:34 51°13.542 2°52.077 238.9 13.1 236 9.7
2006-04-19 07:43:39 51°13.532 2°52.052 239.5 13.2 238 9.8
2006-04-19 07:43:45 51°13.52 2°52.023 240.7 13.1 238 9.8
2006-04-19 07:43:49 51°13.513 2°52.003 241.3 13.1 239 9.8
2006-04-19 07:43:54 51°13.503 2°51.977 242 13.2 240 9.8
2006-04-19 07:43:59 51°13.494 2°51.952 243.2 13.2 240 9.8
2006-04-19 07:44:04 51°13.485 2°51.927 243.2 13.2 241 9.8
2006-04-19 07:44:09 51°13.476 2°51.902 243.7 13.2 240 9.8
2006-04-19 07:44:14 51°13.467 2°51.876 243.4 13.2 240 9.8
2006-04-19 07:44:19 51°13.458 2°51.851 243.1 13.2 240 9.9
2006-04-19 07:44:24 51°13.449 2°51.826 242.9 13.2 239 9.9
2006-04-19 07:44:30 51°13.437 2°51.796 242.1 13.2 239 9.9
2006-04-19 07:44:34 51°13.429 2°51.777 241.6 13.2 238 9.8
2006-04-19 07:44:40 51°13.417 2°51.747 240.5 13.2 236 9.9
2006-04-19 07:44:44 51°13.409 2°51.728 239.5 13.2 236 9.9
2006-04-19 07:44:50 51°13.396 2°51.7 238.6 13.1 234 9.9
2006-04-19 07:44:54 51°13.388 2°51.68 237.4 13.2 235 9.9
2006-04-19 07:45:00 51°13.375 2°51.652 237.2 13.2 235 9.9
2006-04-19 07:45:05 51°13.365 2°51.628 236.8 13.2 234 9.9
2006-04-19 07:45:10 51°13.354 2°51.605 237.1 13.2 235 9.9
2006-04-19 07:45:14 51°13.346 2°51.585 237.5 13.2 235 9.8
2006-04-19 07:45:20 51°13.334 2°51.556 237.9 13.2 237 9.9
2006-04-19 07:45:25 51°13.324 2°51.531 238.9 13.2 237 9.8
2006-04-19 07:45:30 51°13.315 2°51.506 240.2 13.2 241 9.9
2006-04-19 07:45:34 51°13.308 2°51.485 243.5 13.2 243 9.9
2006-04-19 07:45:40 51°13.3 2°51.453 247.6 13.2 247 9.8
2006-04-19 07:45:45 51°13.293 2°51.425 250.4 13.2 249 9.9
2006-04-19 07:45:50 51°13.288 2°51.398 252.6 13.2 252 9.9
2006-04-19 07:45:54 51°13.283 2°51.376 254.5 13.2 252 9.9
2006-04-19 07:45:59 51°13.278 2°51.348 256.2 13.2 253 9.9
2006-04-19 07:46:05 51°13.272 2°51.314 256.9 13.2 253 9.9
2006-04-19 07:46:10 51°13.267 2°51.286 257.1 13.2 254 10
2006-04-19 07:46:14 51°13.263 2°51.263 257.3 13.3 254 10
2006-04-19 07:46:19 51°13.257 2°51.235 257.4 13.3 254 10.1
2006-04-19 07:46:24 51°13.251 2°51.207 257 13.3 252 10.1
2006-04-19 07:46:30 51°13.245 2°51.174 255.9 13.3 252 10.1
2006-04-19 07:46:34 51°13.239 2°51.152 255.1 13.3 250 10.1
2006-04-19 07:46:40 51°13.232 2°51.119 254.2 13.2 250 10.2
2006-04-19 07:46:44 51°13.227 2°51.097 253.3 13.2 248 10.2
2006-04-19 07:46:49 51°13.22 2°51.07 252.5 13.3 249 10.2
2006-04-19 07:46:54 51°13.214 2°51.042 252.8 13.3 249 10.2
2006-04-19 07:46:59 51°13.207 2°51.015 253.2 13.3 250 10.2
2006-04-19 07:47:04 51°13.201 2°50.987 253.6 13.3 250 10.2
2006-04-19 07:47:10 51°13.194 2°50.954 254.2 13.3 251 10.2
2006-04-19 07:47:14 51°13.189 2°50.931 254.7 13.3 251 10.3
2006-04-19 07:47:20 51°13.183 2°50.898 255.7 13.3 252 10.3
2006-04-19 07:47:25 51°13.177 2°50.87 256.1 13.3 252 10.3
2006-04-19 07:47:30 51°13.172 2°50.842 256.5 13.3 253 10.3
2006-04-19 07:47:34 51°13.167 2°50.819 256.9 13.3 253 10.4
2006-04-19 07:47:40 51°13.16 2°50.786 255.5 13.2 251 10.3
2006-04-19 07:47:45 51°13.153 2°50.76 254.1 13.2 249 10.4
2006-04-19 07:47:49 51°13.147 2°50.738 252.1 13.2 247 10.4
2006-04-19 07:47:54 51°13.14 2°50.712 250.2 13.2 246 10.4
2006-04-19 07:47:59 51°13.132 2°50.685 248.9 13.2 244 10.4
2006-04-19 07:48:04 51°13.124 2°50.659 247.6 13.2 244 10.5
2006-04-19 07:48:10 51°13.114 2°50.628 247.5 13.2 244 10.4
2006-04-19 07:48:14 51°13.108 2°50.607 247.4 13.2 245 10.5
2006-04-19 07:48:20 51°13.099 2°50.575 247.7 13.2 245 10.5
2006-04-19 07:48:24 51°13.093 2°50.553 249 13.2 247 10.5
2006-04-19 07:48:30 51°13.085 2°50.521 249.8 13.2 247 10.6
2006-04-19 07:48:34 51°13.079 2°50.5 250.6 13.2 248 10.6
2006-04-19 07:48:39 51°13.073 2°50.472 251.6 13.2 248 10.5
2006-04-19 07:48:44 51°13.066 2°50.445 251.8 13.2 249 10.6
2006-04-19 07:48:49 51°13.059 2°50.418 252.1 13.2 249 10.6
2006-04-19 07:48:54 51°13.053 2°50.391 252.2 13.2 249 10.7
2006-04-19 07:48:59 51°13.046 2°50.363 252.3 13.3 248 10.7
2006-04-19 07:49:04 51°13.039 2°50.337 251.8 13.2 248 10.7
2006-04-19 07:49:10 51°13.03 2°50.304 250.4 13.2 246 10.7
2006-04-19 07:49:14 51°13.024 2°50.283 249.6 13.3 246 10.7
2006-04-19 07:49:20 51°13.015 2°50.251 249.1 13.3 246 10.8
2006-04-19 07:49:24 51°13.009 2°50.23 248.7 13.3 245 10.7
2006-04-19 07:49:30 51°12.999 2°50.198 248.7 13.2 246 10.8
2006-04-19 07:49:34 51°12.993 2°50.177 248.5 13.2 245 10.8
2006-04-19 07:49:40 51°12.984 2°50.145 248.7 13.2 246 10.8
2006-04-19 07:49:45 51°12.977 2°50.118 248.8 13.3 246 10.8
2006-04-19 07:49:50 51°12.97 2°50.091 249.7 13.3 247 10.8
2006-04-19 07:49:54 51°12.964 2°50.069 250.3 13.3 247 10.9
2006-04-19 07:49:59 51°12.957 2°50.042 250.8 13.2 248 10.8
2006-04-19 07:50:05 51°12.949 2°50.009 251.4 13.3 248 10.8
2006-04-19 07:50:10 51°12.943 2°49.982 251.8 13.3 249 10.8
2006-04-19 07:50:14 51°12.938 2°49.96 253.2 13.2 251 10.8
2006-04-19 07:50:20 51°12.93 2°49.927 253.3 13.3 249 10.9
2006-04-19 07:50:24 51°12.924 2°49.905 252.2 13.2 248 10.9
2006-04-19 07:50:30 51°12.915 2°49.873 250.8 13.2 245 10.9
2006-04-19 07:50:34 51°12.909 2°49.852 248.8 13.3 245 10.9
2006-04-19 07:50:40 51°12.898 2°49.821 246.7 13.2 241 10.9
2006-04-19 07:50:44 51°12.891 2°49.801 244.4 13.2 240 11
2006-04-19 07:50:50 51°12.879 2°49.771 242.9 13.2 239 10.9
2006-04-19 07:50:54 51°12.872 2°49.751 241.6 13.2 239 11
2006-04-19 07:51:00 51°12.86 2°49.722 241.2 13.2 238 11
2006-04-19 07:51:05 51°12.851 2°49.697 240.5 13.2 238 11.1
2006-04-19 07:51:10 51°12.84 2°49.672 240.5 13.3 237 11
2006-04-19 07:51:14 51°12.833 2°49.653 240.2 13.3 238 11
2006-04-19 07:51:20 51°12.821 2°49.623 240.2 13.3 237 11
2006-04-19 07:51:24 51°12.813 2°49.603 240.2 13.3 239 11
2006-04-19 07:51:30 51°12.802 2°49.573 241.2 13.3 239 11
2006-04-19 07:51:34 51°12.794 2°49.553 241.6 13.3 239 11
2006-04-19 07:51:40 51°12.783 2°49.522 242.3 13.3 240 11.1
2006-04-19 07:51:44 51°12.775 2°49.502 242 13.3 238 11.1
2006-04-19 07:51:50 51°12.763 2°49.473 240.9 13.3 236 11.1
2006-04-19 07:51:54 51°12.754 2°49.454 238.7 13.2 235 11
2006-04-19 07:51:59 51°12.743 2°49.431 236.7 13.2 232 11
2006-04-19 07:52:05 51°12.729 2°49.404 234.2 13.3 231 11
2006-04-19 07:52:10 51°12.717 2°49.381 232.5 13.2 230 11.1
2006-04-19 07:52:15 51°12.705 2°49.36 230.9 13.2 228 11.1
2006-04-19 07:52:19 51°12.695 2°49.343 229.8 13.3 228 11
2006-04-19 07:52:25 51°12.68 2°49.317 229.3 13.2 226 11
2006-04-19 07:52:30 51°12.667 2°49.297 228.3 13.2 226 11.1
2006-04-19 07:52:34 51°12.657 2°49.28 227.6 13.3 225 11
2006-04-19 07:52:39 51°12.644 2°49.259 227.3 13.3 226 11.1
2006-04-19 07:52:45 51°12.628 2°49.234 227.2 13.3 225 11.1
2006-04-19 07:52:49 51°12.618 2°49.218 226.8 13.3 226 11
2006-04-19 07:52:54 51°12.605 2°49.196 227.1 13.2 226 11.1
2006-04-19 07:52:59 51°12.592 2°49.175 227.3 13.3 226 11.1
2006-04-19 07:53:05 51°12.577 2°49.149 227.9 13.3 227 11
2006-04-19 07:53:10 51°12.564 2°49.128 228.6 13.3 227 11
2006-04-19 07:53:14 51°12.554 2°49.11 229 13.4 228 11
2006-04-19 07:53:20 51°12.54 2°49.084 229.8 13.3 228 11
2006-04-19 07:53:24 51°12.53 2°49.066 230.1 13.3 228 11
2006-04-19 07:53:30 51°12.515 2°49.04 229.8 13.3 228 11
2006-04-19 07:53:34 51°12.505 2°49.023 229.4 13.3 227 11
2006-04-19 07:53:40 51°12.49 2°48.997 228.8 13.4 227 10.8
2006-04-19 07:53:44 51°12.479 2°48.98 228.4 13.3 226 10.8
2006-04-19 07:53:50 51°12.464 2°48.955 227.3 13.3 225 10.8
2006-04-19 07:53:54 51°12.453 2°48.939 226.8 13.4 225 10.7
2006-04-19 07:54:00 51°12.438 2°48.914 226.5 13.4 225 10.7
2006-04-19 07:54:04 51°12.427 2°48.897 227.1 13.3 226 10.6
2006-04-19 07:54:10 51°12.412 2°48.871 227.3 13.4 227 10.6
2006-04-19 07:54:14 51°12.402 2°48.854 228.3 13.4 227 10.5
2006-04-19 07:54:19 51°12.39 2°48.832 229.5 13.3 228 10.5
2006-04-19 07:54:24 51°12.377 2°48.81 229.9 13.4 228 10.5
2006-04-19 07:54:29 51°12.365 2°48.788 230.4 13.4 229 10.4
2006-04-19 07:54:35 51°12.35 2°48.761 230.8 13.4 229 10.4
2006-04-19 07:54:40 51°12.338 2°48.739 230.7 13.3 229 10.3
2006-04-19 07:54:44 51°12.328 2°48.721 230.6 13.5 229 10.4
2006-04-19 07:54:50 51°12.313 2°48.694 230.8 13.4 229 10.3
2006-04-19 07:54:54 51°12.304 2°48.676 230.5 13.4 228 10.3
2006-04-19 07:55:00 51°12.289 2°48.65 230 13.4 229 10.3
2006-04-19 07:55:05 51°12.276 2°48.628 230 13.5 227 10.3
2006-04-19 07:55:09 51°12.266 2°48.61 230 13.4 228 10.2
2006-04-19 07:55:14 51°12.254 2°48.588 229.6 13.4 228 10.2
2006-04-19 07:55:19 51°12.242 2°48.566 230.1 13.4 228 10.1
2006-04-19 07:55:24 51°12.229 2°48.544 230 13.4 228 10.1
2006-04-19 07:55:30 51°12.214 2°48.518 229 13.4 227 10.1
2006-04-19 07:55:34 51°12.204 2°48.5 228.9 13.4 227 10
2006-04-19 07:55:40 51°12.189 2°48.474 229.3 13.3 227 10
2006-04-19 07:55:44 51°12.179 2°48.457 229 13.4 227 10
2006-04-19 07:55:50 51°12.164 2°48.431 228.6 13.1 228 9.9
2006-04-19 07:55:54 51°12.155 2°48.415 229.8 12.3 229 9.9
2006-04-19 07:56:00 51°12.143 2°48.392 230.8 11.6 230 9.8
2006-04-19 07:56:04 51°12.135 2°48.377 232.3 11 231 9.9
2006-04-19 07:56:10 51°12.125 2°48.356 233.1 10.3 231 9.9
2006-04-19 07:56:14 51°12.118 2°48.342 233.6 9.9 232 10
2006-04-19 07:56:19 51°12.111 2°48.326 234.1 9.3 231 10
2006-04-19 07:56:24 51°12.103 2°48.311 234.2 8.6 233 10
2006-04-19 07:56:29 51°12.096 2°48.296 234.4 8.2 232 10
2006-04-19 07:56:34 51°12.09 2°48.283 234.2 7.8 233 10
2006-04-19 07:56:40 51°12.082 2°48.268 233.7 7.3 232 10
2006-04-19 07:56:44 51°12.078 2°48.259 233 6.8 230 9.9
2006-04-19 07:56:49 51°12.072 2°48.249 231 6.4 227 9.9
2006-04-19 07:56:55 51°12.064 2°48.238 228.8 6.2 226 9.9
2006-04-19 07:57:00 51°12.058 2°48.23 222.9 5.7 220 9.8
2006-04-19 07:57:05 51°12.053 2°48.224 217.5 5.2 217 9.8
2006-04-19 07:57:10 51°12.047 2°48.218 214 4.7 215 9.8
2006-04-19 07:57:14 51°12.044 2°48.215 211.1 4.2 213 9.8
2006-04-19 07:57:20 51°12.039 2°48.21 207.2 3.3 210 9.8
2006-04-19 07:57:24 51°12.037 2°48.208 201.8 2.5 209 9.8
2006-04-19 07:57:30 51°12.035 2°48.206 196.6 1.6 213 9.8
2006-04-19 07:57:34 51°12.034 2°48.205 192.3 0.9 233 9.7
2006-04-19 07:57:39 51°12.034 2°48.204 188.6 0.6 286 9.8
2006-04-19 07:57:45 51°12.035 2°48.203 185.3 0.8 313 9.8
2006-04-19 07:57:50 51°12.036 2°48.201 182.5 0.7 315 9.8
2006-04-19 07:57:55 51°12.037 2°48.2 180.1 0.8 312 -999
2006-04-19 07:58:00 51°12.038 2°48.199 177.3 0.7 316 -999
2006-04-19 07:58:05 51°12.038 2°48.198 174.6 0.7 311 -999
2006-04-19 07:58:10 51°12.039 2°48.197 172.1 0.7 313 -999
2006-04-19 07:58:15 51°12.039 2°48.196 170.1 0.7 310 -999
2006-04-19 07:58:20 51°12.04 2°48.195 167.7 0.6 311 -999
2006-04-19 07:58:25 51°12.04 2°48.194 165.6 0.7 308 -999
2006-04-19 07:58:30 51°12.041 2°48.192 163.5 0.7 301 -999
2006-04-19 07:58:35 51°12.041 2°48.191 161.7 0.6 299 -999
2006-04-19 07:58:40 51°12.042 2°48.19 160.3 0.7 297 5.4
2006-04-19 07:58:44 51°12.042 2°48.189 159.3 0.7 297 9.8
2006-04-19 07:58:49 51°12.042 2°48.187 158.5 0.6 295 9.8
2006-04-19 07:58:54 51°12.043 2°48.186 157.6 0.6 290 9.8
2006-04-19 07:59:00 51°12.043 2°48.185 156.7 0.6 290 9.8
2006-04-19 07:59:04 51°12.043 2°48.184 156.2 0.6 293 9.8
2006-04-19 07:59:09 51°12.043 2°48.182 155.4 0.6 287 9.8
2006-04-19 07:59:14 51°12.044 2°48.181 154.6 0.6 297 9.8
2006-04-19 07:59:20 51°12.044 2°48.18 154.1 0.6 294 9.9
2006-04-19 07:59:25 51°12.044 2°48.179 153.1 0.6 287 9.8
2006-04-19 07:59:30 51°12.045 2°48.177 152.4 0.5 294 4.7
2006-04-19 07:59:35 51°12.045 2°48.176 151.6 0.6 287 4.9
2006-04-19 07:59:40 51°12.045 2°48.175 150.2 0.6 288 -999
2006-04-19 07:59:45 51°12.045 2°48.174 149.1 0.5 288 5
2006-04-19 07:59:50 51°12.045 2°48.173 147.7 0.5 293 -999
2006-04-19 07:59:54 51°12.046 2°48.172 147.1 0.6 284 9.9
2006-04-19 08:00:00 51°12.046 2°48.171 146.1 0.5 293 9.9
2006-04-19 08:00:04 51°12.046 2°48.17 144.9 0.5 287 9.9
2006-04-19 08:00:10 51°12.046 2°48.169 143.7 0.5 286 9.8
2006-04-19 08:00:14 51°12.047 2°48.168 142.9 0.5 282 9.9
2006-04-19 08:00:20 51°12.047 2°48.167 141.8 0.4 288 9.9
2006-04-19 08:00:24 51°12.047 2°48.166 140.8 0.4 285 9.9
2006-04-19 08:00:30 51°12.047 2°48.165 139.8 0.5 287 10.1
2006-04-19 08:00:34 51°12.047 2°48.164 138.6 0.4 283 9.9
2006-04-19 08:00:40 51°12.048 2°48.163 137.7 0.4 281 9.9
2006-04-19 08:00:44 51°12.048 2°48.162 136.5 0.4 287 9.9
2006-04-19 08:00:50 51°12.048 2°48.161 135.8 0.4 281 9.9
2006-04-19 08:00:54 51°12.048 2°48.16 134.8 0.4 284 9.9
2006-04-19 08:00:59 51°12.048 2°48.16 134 0.4 282 9.9
2006-04-19 08:01:04 51°12.048 2°48.159 133 0.4 280 9.9
2006-04-19 08:01:09 51°12.048 2°48.158 132.3 0.4 278 9.9
2006-04-19 08:01:14 51°12.048 2°48.157 131.4 0.4 275 9.9
2006-04-19 08:01:20 51°12.048 2°48.156 130.7 0.4 279 9.9
2006-04-19 08:01:24 51°12.048 2°48.155 129.9 0.4 277 9.9
2006-04-19 08:01:30 51°12.048 2°48.154 129.2 0.4 277 9.9
2006-04-19 08:01:34 51°12.048 2°48.153 128.8 0.4 273 9.9
2006-04-19 08:01:40 51°12.048 2°48.152 128.3 0.4 273 9.9
2006-04-19 08:01:44 51°12.048 2°48.152 127.8 0.4 271 9.9
2006-04-19 08:01:50 51°12.048 2°48.151 127.5 0.4 277 9.9
2006-04-19 08:01:54 51°12.048 2°48.15 127.2 0.4 263 9.9
2006-04-19 08:02:00 51°12.048 2°48.149 126.9 0.4 265 9.9
2006-04-19 08:02:04 51°12.048 2°48.148 126.7 0.4 269 9.9
2006-04-19 08:02:10 51°12.048 2°48.147 126.5 0.4 273 9.9
2006-04-19 08:02:14 51°12.048 2°48.147 126.2 0.4 264 9.9
2006-04-19 08:02:20 51°12.048 2°48.145 126 0.4 262 9.9
2006-04-19 08:02:24 51°12.048 2°48.145 126.1 0.4 271 9.9
2006-04-19 08:02:30 51°12.048 2°48.144 126.3 0.4 266 9.9
2006-04-19 08:02:34 51°12.048 2°48.143 126.3 0.4 266 9.9
2006-04-19 08:02:40 51°12.048 2°48.142 126.5 0.4 265 9.9
2006-04-19 08:02:44 51°12.048 2°48.141 126.8 0.4 270 9.9
2006-04-19 08:02:50 51°12.048 2°48.14 126.8 0.4 266 10
2006-04-19 08:02:54 51°12.048 2°48.139 126.9 0.4 273 9.9
2006-04-19 08:03:00 51°12.048 2°48.139 127 0.4 271 9.9
2006-04-19 08:03:04 51°12.048 2°48.138 126.9 0.4 272 9.9
2006-04-19 08:03:09 51°12.048 2°48.137 126.8 0.4 272 9.9
2006-04-19 08:03:14 51°12.048 2°48.136 126.7 0.4 270 9.9
2006-04-19 08:03:20 51°12.048 2°48.135 126.6 0.4 268 10
2006-04-19 08:03:25 51°12.048 2°48.134 126.6 0.4 265 9.9
2006-04-19 08:03:29 51°12.048 2°48.133 126.6 0.4 272 9.9
2006-04-19 08:03:34 51°12.048 2°48.133 126.9 0.4 268 10
2006-04-19 08:03:40 51°12.048 2°48.132 127 0.4 265 10
2006-04-19 08:03:44 51°12.047 2°48.131 127 0.4 270 9.9
2006-04-19 08:03:50 51°12.047 2°48.13 127.4 0.4 265 9.9
2006-04-19 08:03:54 51°12.047 2°48.129 127.6 0.4 266 9.9
2006-04-19 08:04:00 51°12.047 2°48.128 127.7 0.4 265 9.9
2006-04-19 08:04:04 51°12.047 2°48.128 127.7 0.4 266 9.9
2006-04-19 08:04:10 51°12.047 2°48.126 128.1 0.4 266 10
2006-04-19 08:04:14 51°12.047 2°48.126 128.2 0.4 270 10
2006-04-19 08:04:18 51°12.047 2°48.125 128.4 0.4 267 10
2006-04-19 08:04:25 51°12.047 2°48.124 128.4 0.4 264 10
2006-04-19 08:04:29 51°12.047 2°48.123 128.8 0.4 266 10
2006-04-19 08:04:34 51°12.047 2°48.123 128.9 0.4 260 10
2006-04-19 08:04:40 51°12.047 2°48.121 129.3 0.4 266 10
2006-04-19 08:04:45 51°12.047 2°48.12 129.8 0.4 259 9.9
2006-04-19 08:04:50 51°12.047 2°48.12 130.3 0.4 264 9.9
2006-04-19 08:04:54 51°12.047 2°48.119 130.6 0.4 257 9.9
2006-04-19 08:05:00 51°12.047 2°48.118 131.2 0.4 263 10
2006-04-19 08:05:05 51°12.047 2°48.117 131.5 0.4 259 9.9
2006-04-19 08:05:10 51°12.047 2°48.116 131.9 0.4 262 10
2006-04-19 08:05:14 51°12.047 2°48.115 132.3 0.4 258 9.9
2006-04-19 08:05:20 51°12.047 2°48.114 132.6 0.4 267 10
2006-04-19 08:05:24 51°12.047 2°48.113 132.8 0.4 263 9.9
2006-04-19 08:05:28 51°12.046 2°48.113 133.2 0.4 255 10
2006-04-19 08:05:35 51°12.046 2°48.111 133.5 0.4 263 10
2006-04-19 08:05:40 51°12.046 2°48.111 133.8 0.4 262 10
2006-04-19 08:05:44 51°12.046 2°48.11 134.2 0.4 261 10
2006-04-19 08:05:50 51°12.046 2°48.109 134.2 0.4 263 10
2006-04-19 08:05:54 51°12.046 2°48.108 134.4 0.4 268 10
2006-04-19 08:06:00 51°12.046 2°48.107 134.4 0.4 263 10
2006-04-19 08:06:05 51°12.046 2°48.107 134.4 0.4 264 10
2006-04-19 08:06:09 51°12.046 2°48.106 134.4 0.3 264 10
2006-04-19 08:06:14 51°12.046 2°48.105 134.4 0.4 266 10
2006-04-19 08:06:20 51°12.046 2°48.104 134.3 0.4 268 10
2006-04-19 08:06:25 51°12.046 2°48.103 134.3 0.4 269 10
2006-04-19 08:06:30 51°12.046 2°48.103 134.3 0.4 269 10
2006-04-19 08:06:34 51°12.046 2°48.102 134.3 0.4 266 10
2006-04-19 08:06:40 51°12.046 2°48.101 134.3 0.4 266 10
2006-04-19 08:06:45 51°12.046 2°48.1 134.3 0.4 267 10
2006-04-19 08:06:50 51°12.046 2°48.099 134.3 0.4 265 10
2006-04-19 08:06:54 51°12.046 2°48.099 134.2 0.4 268 10
2006-04-19 08:06:59 51°12.046 2°48.098 134.2 0.4 261 10
2006-04-19 08:07:04 51°12.046 2°48.097 134.1 0.4 264 10
2006-04-19 08:07:10 51°12.046 2°48.096 134.1 0.4 268 10
2006-04-19 08:07:14 51°12.046 2°48.095 134.1 0.4 263 10
2006-04-19 08:07:20 51°12.046 2°48.094 134.1 0.4 264 10
2006-04-19 08:07:24 51°12.045 2°48.093 134 0.4 263 10
2006-04-19 08:07:30 51°12.045 2°48.093 134.1 0.4 265 10
2006-04-19 08:07:34 51°12.045 2°48.092 133.9 0.4 269 10
2006-04-19 08:07:39 51°12.045 2°48.091 133.8 0.4 263 10
2006-04-19 08:07:45 51°12.045 2°48.09 133.8 0.4 266 10
2006-04-19 08:07:49 51°12.045 2°48.089 133.6 0.4 265 10
2006-04-19 08:07:55 51°12.045 2°48.088 133.5 0.4 262 10
2006-04-19 08:08:00 51°12.045 2°48.087 133.5 0.4 268 10
2006-04-19 08:08:04 51°12.045 2°48.087 133.5 0.4 265 10
2006-04-19 08:08:09 51°12.045 2°48.086 133.3 0.4 263 10
2006-04-19 08:08:14 51°12.045 2°48.085 133.3 0.4 271 10
2006-04-19 08:08:20 51°12.045 2°48.084 133.1 0.4 262 10
2006-04-19 08:08:24 51°12.045 2°48.083 133 0.4 267 10
2006-04-19 08:08:30 51°12.045 2°48.082 133 0.4 263 10
2006-04-19 08:08:34 51°12.045 2°48.081 132.9 0.4 268 10
2006-04-19 08:08:40 51°12.045 2°48.08 132.9 0.4 267 10
2006-04-19 08:08:45 51°12.045 2°48.08 132.9 0.4 267 10
2006-04-19 08:08:50 51°12.045 2°48.079 132.9 0.4 262 10
2006-04-19 08:08:54 51°12.045 2°48.078 132.9 0.3 275 10
2006-04-19 08:09:00 51°12.045 2°48.077 132.8 0.4 266 10
2006-04-19 08:09:04 51°12.045 2°48.076 132.6 0.4 262 10
2006-04-19 08:09:10 51°12.045 2°48.075 132.6 0.4 267 10
2006-04-19 08:09:14 51°12.045 2°48.075 132.6 0.4 256 10
2006-04-19 08:09:20 51°12.045 2°48.074 132.4 0.3 270 10
2006-04-19 08:09:24 51°12.044 2°48.073 132.4 0.4 260 10
2006-04-19 08:09:30 51°12.044 2°48.072 132.4 0.4 259 10
2006-04-19 08:09:34 51°12.044 2°48.071 132.4 0.3 267 10
2006-04-19 08:09:40 51°12.044 2°48.071 132.5 0.4 257 10
2006-04-19 08:09:44 51°12.044 2°48.07 132.5 0.4 260 10
2006-04-19 08:09:50 51°12.044 2°48.069 132.7 0.3 266 10
2006-04-19 08:09:54 51°12.044 2°48.068 132.8 0.4 256 10.1
2006-04-19 08:10:00 51°12.044 2°48.067 132.8 0.4 259 10
2006-04-19 08:10:04 51°12.044 2°48.066 133.1 0.4 257 10
2006-04-19 08:10:10 51°12.043 2°48.066 133.2 0.4 254 10
2006-04-19 08:10:14 51°12.043 2°48.065 133.5 0.4 256 10
2006-04-19 08:10:20 51°12.043 2°48.064 133.8 0.4 233 10
2006-04-19 08:10:24 51°12.043 2°48.064 134.1 0.4 181 10
2006-04-19 08:10:29 51°12.042 2°48.065 135.2 0.8 167 10
2006-04-19 08:10:34 51°12.04 2°48.066 137.9 1 157 10
2006-04-19 08:10:40 51°12.038 2°48.067 141.9 1.5 159 10
2006-04-19 08:10:44 51°12.036 2°48.068 145.8 1.7 163 9.9
2006-04-19 08:10:50 51°12.033 2°48.069 150.4 2 166 9.9
2006-04-19 08:10:54 51°12.03 2°48.069 155.1 2.2 169 9.9
2006-04-19 08:11:00 51°12.026 2°48.071 159.5 2.5 173 9.9
2006-04-19 08:11:05 51°12.023 2°48.071 163.8 2.6 176 9.8
2006-04-19 08:11:10 51°12.018 2°48.07 168.4 2.8 181 9.8
2006-04-19 08:11:14 51°12.015 2°48.07 173.3 3 183 9.7
2006-04-19 08:11:19 51°12.011 2°48.069 177.9 3.2 190 9.8
2006-04-19 08:11:25 51°12.005 2°48.067 182.9 3.6 193 9.7
2006-04-19 08:11:30 51°11.999 2°48.063 188.2 4.1 198 9.6
2006-04-19 08:11:34 51°11.995 2°48.06 195 4.5 206 9.6
2006-04-19 08:11:40 51°11.988 2°48.053 203 4.9 212 9.5
2006-04-19 08:11:44 51°11.984 2°48.047 211.4 5.2 220 9.5
2006-04-19 08:11:50 51°11.978 2°48.035 219.6 5.5 228 9.5
2006-04-19 08:11:54 51°11.974 2°48.027 228.6 5.7 235 9.5
2006-04-19 08:12:00 51°11.97 2°48.013 237.2 5.8 244 9.5
2006-04-19 08:12:04 51°11.968 2°48.003 246.3 5.9 250 9.5
2006-04-19 08:12:09 51°11.966 2°47.99 255.5 6 260 9.5
2006-04-19 08:12:14 51°11.966 2°47.977 264.8 6 266 9.5
2006-04-19 08:12:20 51°11.967 2°47.962 274.1 5.6 275 9.6
2006-04-19 08:12:24 51°11.968 2°47.953 282.3 5.3 280 9.7
2006-04-19 08:12:30 51°11.97 2°47.94 288.1 5 283 9.7
2006-04-19 08:12:34 51°11.972 2°47.932 293.8 4.8 290 9.8
2006-04-19 08:12:40 51°11.975 2°47.921 299.3 4.6 293 9.8
2006-04-19 08:12:45 51°11.978 2°47.913 304.9 4.4 298 9.9
2006-04-19 08:12:50 51°11.981 2°47.906 310.5 4.3 302 9.9
2006-04-19 08:12:54 51°11.984 2°47.9 315.8 4.1 308 9.9
2006-04-19 08:13:00 51°11.988 2°47.893 321.3 3.9 312 10
2006-04-19 08:13:04 51°11.992 2°47.888 326.5 3.8 318 10.1
2006-04-19 08:13:10 51°11.997 2°47.882 331.7 3.9 322 10.1
2006-04-19 08:13:14 51°12 2°47.879 337.7 3.8 327 10.1
2006-04-19 08:13:20 51°12.006 2°47.874 344.6 3.8 335 10.2
2006-04-19 08:13:25 51°12.011 2°47.872 351.4 3.7 341 10.2
2006-04-19 08:13:30 51°12.016 2°47.871 358.5 3.7 348 10.2
2006-04-19 08:13:34 51°12.02 2°47.87 5.1 3.7 354 10.2
2006-04-19 08:13:40 51°12.027 2°47.87 10.8 3.9 -999 10.3
2006-04-19 08:13:45 51°12.032 2°47.871 15 4 3 10.4
2006-04-19 08:13:50 51°12.038 2°47.872 18.8 4 8 10.4
2006-04-19 08:13:54 51°12.042 2°47.873 21 4.2 8 10.5
2006-04-19 08:13:59 51°12.048 2°47.875 22 4.3 10 10.5
2006-04-19 08:14:05 51°12.055 2°47.877 22.6 4.4 10 10.6
2006-04-19 08:14:10 51°12.062 2°47.879 22.7 4.4 12 10.6
2006-04-19 08:14:15 51°12.068 2°47.881 22.7 4.6 11 10.7
2006-04-19 08:14:19 51°12.073 2°47.883 22.3 4.7 12 10.7
2006-04-19 08:14:24 51°12.079 2°47.885 21.8 4.7 11 10.7
2006-04-19 08:14:30 51°12.087 2°47.887 21.7 4.8 12 10.8
2006-04-19 08:14:34 51°12.093 2°47.889 21.7 4.9 11 10.8
2006-04-19 08:14:40 51°12.1 2°47.892 22.5 4.8 14 10.9
2006-04-19 08:14:45 51°12.107 2°47.895 23.8 4.6 15 10.8
2006-04-19 08:14:50 51°12.112 2°47.897 25 4.5 15 10.9
2006-04-19 08:14:54 51°12.117 2°47.899 26.6 4.4 17 11
2006-04-19 08:15:00 51°12.124 2°47.903 28.2 4.3 18 11
2006-04-19 08:15:04 51°12.128 2°47.906 29.8 4.2 21 11.1
2006-04-19 08:15:10 51°12.135 2°47.91 31.5 4.1 22 11.1
2006-04-19 08:15:14 51°12.139 2°47.913 33.6 4.1 25 11.2
2006-04-19 08:15:20 51°12.144 2°47.918 36 4 27 11.2
2006-04-19 08:15:24 51°12.148 2°47.921 38.4 3.9 29 11.2
2006-04-19 08:15:30 51°12.153 2°47.927 40.7 3.8 33 11.2
2006-04-19 08:15:34 51°12.157 2°47.931 43.1 3.7 35 11.3
2006-04-19 08:15:40 51°12.162 2°47.937 45.5 3.7 37 11.3
2006-04-19 08:15:45 51°12.165 2°47.942 48.3 3.7 41 11.3
2006-04-19 08:15:50 51°12.169 2°47.948 50.8 3.6 42 11.3
2006-04-19 08:15:55 51°12.172 2°47.953 52.7 3.6 46 11.3
2006-04-19 08:16:00 51°12.175 2°47.959 55.2 3.5 48 11.3
2006-04-19 08:16:04 51°12.178 2°47.964 56.7 3.5 49 11.3
2006-04-19 08:16:10 51°12.182 2°47.971 57.5 3.4 51 11.4
2006-04-19 08:16:14 51°12.184 2°47.975 58.2 3.4 51 11.3
2006-04-19 08:16:20 51°12.187 2°47.982 58.6 3.4 50 11.4
2006-04-19 08:16:25 51°12.191 2°47.988 58.5 3.4 50 11.4
2006-04-19 08:16:30 51°12.194 2°47.994 57.8 3.4 48 11.4
2006-04-19 08:16:34 51°12.196 2°47.998 56.9 3.4 49 11.4
2006-04-19 08:16:39 51°12.2 2°48.003 55 3.3 45 11.4
2006-04-19 08:16:45 51°12.204 2°48.009 52.6 3.3 45 11.4
2006-04-19 08:16:50 51°12.207 2°48.014 50.1 3.2 41 11.5
2006-04-19 08:16:54 51°12.21 2°48.017 48.3 3.3 41 11.5
2006-04-19 08:17:00 51°12.214 2°48.023 47.4 3.2 39 11.4
2006-04-19 08:17:04 51°12.217 2°48.026 47.3 3.2 40 11.4
2006-04-19 08:17:10 51°12.22 2°48.032 47.9 3.2 42 11.4
2006-04-19 08:17:14 51°12.223 2°48.036 49.3 3.3 43 11.4
2006-04-19 08:17:20 51°12.227 2°48.042 51.1 3.3 42 11.4
2006-04-19 08:17:24 51°12.23 2°48.046 52.9 3.2 46 11.4
2006-04-19 08:17:30 51°12.234 2°48.052 54.8 3.2 47 11.4
2006-04-19 08:17:34 51°12.236 2°48.057 56.7 3.2 51 11.4
2006-04-19 08:17:40 51°12.239 2°48.063 58.6 3.2 50 11.4
2006-04-19 08:17:45 51°12.242 2°48.069 59.3 3.2 51 11.5
2006-04-19 08:17:50 51°12.245 2°48.075 59.7 3.2 51 11.5
2006-04-19 08:17:54 51°12.247 2°48.079 59.9 3.2 52 11.5
2006-04-19 08:18:00 51°12.25 2°48.086 60.1 3.2 53 11.5
2006-04-19 08:18:04 51°12.252 2°48.09 60.3 3.3 53 11.5
2006-04-19 08:18:10 51°12.255 2°48.097 60.5 3.2 54 11.5
2006-04-19 08:18:14 51°12.257 2°48.102 60.8 3.2 53 11.5
2006-04-19 08:18:19 51°12.26 2°48.108 61.1 3.2 55 11.5
2006-04-19 08:18:24 51°12.262 2°48.114 61.3 3.3 55 11.5
2006-04-19 08:18:30 51°12.266 2°48.121 61.6 3.3 54 11.5
2006-04-19 08:18:34 51°12.268 2°48.125 61.9 3.3 54 11.5
2006-04-19 08:18:40 51°12.271 2°48.132 61.9 3.3 56 11.5
2006-04-19 08:18:44 51°12.273 2°48.137 62.1 3.3 55 11.5
2006-04-19 08:18:50 51°12.276 2°48.144 62.4 3.3 56 11.5
2006-04-19 08:18:54 51°12.278 2°48.149 62.4 3.2 55 11.5
2006-04-19 08:19:00 51°12.281 2°48.156 62.4 3.2 56 11.5
2006-04-19 08:19:04 51°12.283 2°48.161 62.3 3.2 55 11.5
2006-04-19 08:19:10 51°12.286 2°48.168 62 3.2 56 11.4
2006-04-19 08:19:14 51°12.288 2°48.172 61.6 3.2 54 11.4
2006-04-19 08:19:20 51°12.291 2°48.179 61.5 3.2 54 11.5
2006-04-19 08:19:24 51°12.293 2°48.184 61.3 3.2 54 11.5
2006-04-19 08:19:29 51°12.296 2°48.19 60.9 3.2 54 11.5
2006-04-19 08:19:35 51°12.299 2°48.197 60.8 3.2 54 11.4
2006-04-19 08:19:40 51°12.301 2°48.202 60.5 3.2 54 11.4
2006-04-19 08:19:44 51°12.303 2°48.207 60.2 3.2 53 11.4
2006-04-19 08:19:50 51°12.307 2°48.213 59.6 3.2 52 11.4
2006-04-19 08:19:54 51°12.309 2°48.218 59.3 3.2 52 11.4
2006-04-19 08:20:00 51°12.312 2°48.224 58.9 3.2 51 11.5
2006-04-19 08:20:05 51°12.315 2°48.23 58.5 3.2 52 11.5
2006-04-19 08:20:09 51°12.317 2°48.234 58.2 3.2 50 11.5
2006-04-19 08:20:14 51°12.32 2°48.24 57.8 3.2 50 11.5
2006-04-19 08:20:20 51°12.324 2°48.246 57.3 3.2 49 11.5
2006-04-19 08:20:25 51°12.327 2°48.252 56.9 3.2 50 11.5
2006-04-19 08:20:30 51°12.33 2°48.257 56.6 3.2 48 11.5
2006-04-19 08:20:34 51°12.332 2°48.261 56.5 3.2 49 11.5
2006-04-19 08:20:40 51°12.335 2°48.267 56.5 3.2 49 11.5
2006-04-19 08:20:45 51°12.338 2°48.273 56.6 3.2 49 11.5
2006-04-19 08:20:50 51°12.341 2°48.278 56.6 3.2 48 11.5
2006-04-19 08:20:54 51°12.344 2°48.282 56.7 3.2 49 11.5
2006-04-19 08:20:59 51°12.347 2°48.287 57.2 3.2 49 11.5
2006-04-19 08:21:05 51°12.35 2°48.294 57.2 3.2 50 11.5
2006-04-19 08:21:10 51°12.353 2°48.299 57.5 3.2 49 11.4
2006-04-19 08:21:14 51°12.355 2°48.304 57.9 3.2 51 11.5
2006-04-19 08:21:20 51°12.359 2°48.31 58 3.2 50 11.4
2006-04-19 08:21:25 51°12.361 2°48.315 58 3.2 49 11.4
2006-04-19 08:21:29 51°12.364 2°48.32 58 3.2 50 11.4
2006-04-19 08:21:35 51°12.367 2°48.326 58.2 3.2 50 11.4
2006-04-19 08:21:40 51°12.37 2°48.332 58.5 3.2 52 11.4
2006-04-19 08:21:44 51°12.372 2°48.336 59 3.1 51 11.5
2006-04-19 08:21:49 51°12.375 2°48.342 59.6 3.2 53 11.5
2006-04-19 08:21:54 51°12.377 2°48.348 60.2 3.2 53 11.5
2006-04-19 08:22:00 51°12.38 2°48.354 61 3.1 57 11.4
2006-04-19 08:22:04 51°12.382 2°48.359 61.6 3.2 53 11.5
2006-04-19 08:22:10 51°12.385 2°48.366 62.2 3.1 57 11.5
2006-04-19 08:22:14 51°12.387 2°48.37 62.6 3.1 54 11.5
2006-04-19 08:22:20 51°12.39 2°48.377 63.3 3.1 59 11.5
2006-04-19 08:22:25 51°12.392 2°48.383 63.7 3.1 55 11.4
2006-04-19 08:22:30 51°12.394 2°48.389 64.2 3.1 60 11.4
2006-04-19 08:22:34 51°12.396 2°48.394 64.6 3.1 56 11.4
2006-04-19 08:22:39 51°12.399 2°48.4 64.8 3.1 59 11.4
2006-04-19 08:22:44 51°12.401 2°48.406 65.3 3.1 57 11.4
2006-04-19 08:22:50 51°12.404 2°48.413 65.3 3.1 58 11.4
2006-04-19 08:22:54 51°12.405 2°48.418 65.5 3.1 60 11.5
2006-04-19 08:23:00 51°12.408 2°48.425 65.8 3.1 59 11.4
2006-04-19 08:23:05 51°12.41 2°48.431 66 3.1 59 11.4
2006-04-19 08:23:09 51°12.412 2°48.436 66.2 3.2 60 11.4
2006-04-19 08:23:14 51°12.414 2°48.442 66.3 3.1 61 11.4
2006-04-19 08:23:20 51°12.416 2°48.449 66.3 3.1 60 11.4
2006-04-19 08:23:24 51°12.418 2°48.453 66.4 3.1 60 11.3
2006-04-19 08:23:30 51°12.421 2°48.461 66.2 3.2 59 11.4
2006-04-19 08:23:35 51°12.423 2°48.467 65.8 3.1 60 11.5
2006-04-19 08:23:38 51°12.424 2°48.47 65.3 3.1 60 11.5
2006-04-19 08:23:44 51°12.427 2°48.477 64.8 3.1 59 11.4
2006-04-19 08:23:49 51°12.429 2°48.483 64.3 3.1 58 11.4
2006-04-19 08:23:54 51°12.432 2°48.489 63.8 3.1 56 11.4
2006-04-19 08:24:00 51°12.434 2°48.496 63.5 3.1 57 11.4
2006-04-19 08:24:04 51°12.436 2°48.5 63 3.1 55 11.4
2006-04-19 08:24:10 51°12.439 2°48.507 62.3 3.1 57 11.4
2006-04-19 08:24:14 51°12.441 2°48.512 62.2 3.1 54 11.4
2006-04-19 08:24:20 51°12.444 2°48.519 61.8 3.1 56 11.4
2006-04-19 08:24:24 51°12.446 2°48.523 61.4 3.1 53 11.4
2006-04-19 08:24:30 51°12.449 2°48.53 61.4 3.1 56 11.4
2006-04-19 08:24:34 51°12.451 2°48.534 61.1 3.1 52 11.4
2006-04-19 08:24:40 51°12.454 2°48.541 60.8 3.1 54 11.4
2006-04-19 08:24:44 51°12.456 2°48.545 60.4 3.1 53 11.3
2006-04-19 08:24:49 51°12.458 2°48.55 60.2 3.1 52 11.3
2006-04-19 08:24:54 51°12.461 2°48.556 59.7 3.1 53 11.4
2006-04-19 08:24:59 51°12.464 2°48.561 59.4 3.1 52 11.3
2006-04-19 08:25:04 51°12.466 2°48.567 58.9 3.1 50 11.3
2006-04-19 08:25:10 51°12.469 2°48.573 58.7 3.1 52 11.3
2006-04-19 08:25:14 51°12.471 2°48.577 58.3 3.1 49 11.3
2006-04-19 08:25:19 51°12.474 2°48.582 58.2 3.1 51 11.3
2006-04-19 08:25:24 51°12.477 2°48.588 58.1 3.1 50 11.3
2006-04-19 08:25:30 51°12.48 2°48.594 58.1 3.1 51 11.3
2006-04-19 08:25:34 51°12.482 2°48.598 58.2 3.1 50 11.3
2006-04-19 08:25:40 51°12.486 2°48.605 58.2 3.1 51 11.3
2006-04-19 08:25:44 51°12.488 2°48.609 58.5 3.1 50 11.4
2006-04-19 08:25:50 51°12.491 2°48.615 58.6 3.1 51 11.4
2006-04-19 08:25:54 51°12.493 2°48.619 58.7 3.1 50 11.3
2006-04-19 08:26:00 51°12.497 2°48.626 58.8 3.2 51 11.4
2006-04-19 08:26:05 51°12.5 2°48.631 58.9 3.1 51 11.4
2006-04-19 08:26:10 51°12.502 2°48.637 59.1 3.2 52 11.3
2006-04-19 08:26:15 51°12.505 2°48.642 59.4 3.1 51 11.3
2006-04-19 08:26:20 51°12.507 2°48.648 59.6 3.1 52 11.3
2006-04-19 08:26:24 51°12.51 2°48.652 59.9 3.1 52 11.3
2006-04-19 08:26:30 51°12.513 2°48.658 60.2 3.1 51 11.3
2006-04-19 08:26:35 51°12.515 2°48.664 60.5 3.1 53 11.3
2006-04-19 08:26:40 51°12.518 2°48.669 60.7 3.1 53 11.3
2006-04-19 08:26:44 51°12.52 2°48.674 60.9 3.1 54 11.3
2006-04-19 08:26:50 51°12.523 2°48.681 61.4 3.2 53 11.3
2006-04-19 08:26:55 51°12.526 2°48.686 61.6 3.1 54 11.3
2006-04-19 08:26:59 51°12.528 2°48.691 62 3.1 53 11.3
2006-04-19 08:27:05 51°12.531 2°48.697 61.8 3.1 54 11.3
2006-04-19 08:27:09 51°12.533 2°48.702 62.2 3.1 54 11.3
2006-04-19 08:27:14 51°12.535 2°48.708 62.5 3.1 54 11.3
2006-04-19 08:27:20 51°12.538 2°48.714 62.7 3.1 55 11.2
2006-04-19 08:27:24 51°12.54 2°48.719 63 3.1 56 11.3
2006-04-19 08:27:30 51°12.543 2°48.725 63.3 3.1 55 11.3
2006-04-19 08:27:34 51°12.545 2°48.73 63.5 3.1 57 11.3
2006-04-19 08:27:40 51°12.548 2°48.737 63.6 3.1 56 11.3
2006-04-19 08:27:45 51°12.551 2°48.743 63.7 3.1 56 11.3
2006-04-19 08:27:50 51°12.553 2°48.749 63.8 3.1 57 11.3
2006-04-19 08:27:54 51°12.555 2°48.753 63.8 3.1 56 11.3
2006-04-19 08:28:00 51°12.558 2°48.76 63.8 3.1 56 11.3
2006-04-19 08:28:04 51°12.56 2°48.765 63.8 3.1 55 11.3
2006-04-19 08:28:10 51°12.563 2°48.771 63.8 3.1 56 11.2
2006-04-19 08:28:14 51°12.565 2°48.776 63.8 3.1 57 11.3
2006-04-19 08:28:19 51°12.567 2°48.782 63.8 3.1 57 11.3
2006-04-19 08:28:24 51°12.57 2°48.788 63.8 3.1 56 11.3
2006-04-19 08:28:29 51°12.573 2°48.793 63.6 3.1 56 11.2
2006-04-19 08:28:34 51°12.575 2°48.799 63.5 3.1 56 11.2
2006-04-19 08:28:40 51°12.578 2°48.806 63.5 3.1 57 11.2
2006-04-19 08:28:44 51°12.58 2°48.81 63.4 3.1 55 11.2
2006-04-19 08:28:49 51°12.582 2°48.816 63.4 3.1 56 11.2
2006-04-19 08:28:54 51°12.585 2°48.821 63.2 3.1 56 11.2
2006-04-19 08:29:00 51°12.588 2°48.828 63.2 3.1 57 11.2
2006-04-19 08:29:04 51°12.589 2°48.833 63.1 3.1 56 11.2
2006-04-19 08:29:09 51°12.592 2°48.838 63.2 3.1 56 11.2
2006-04-19 08:29:14 51°12.594 2°48.844 63.3 3.1 55 11.2
2006-04-19 08:29:20 51°12.596 2°48.85 63.3 3.1 56 11.2
2006-04-19 08:29:24 51°12.598 2°48.855 63.3 3.1 55 11.2
2006-04-19 08:29:30 51°12.601 2°48.861 63.4 3.1 57 11.2
2006-04-19 08:29:34 51°12.603 2°48.866 63.5 3.1 55 11.2
2006-04-19 08:29:40 51°12.606 2°48.873 63.4 3.1 56 11.2
2006-04-19 08:29:45 51°12.608 2°48.878 63.5 3.2 55 11.2
2006-04-19 08:29:50 51°12.611 2°48.884 63.4 3.1 57 11.2
2006-04-19 08:29:55 51°12.613 2°48.89 63.4 3 56 11.2
2006-04-19 08:30:00 51°12.616 2°48.895 63.5 3.1 56 11.2
2006-04-19 08:30:04 51°12.618 2°48.9 63.7 3.1 55 11.2
2006-04-19 08:30:10 51°12.621 2°48.906 63.8 3.1 56 11.1
2006-04-19 08:30:14 51°12.622 2°48.911 63.8 3.1 57 11.2
2006-04-19 08:30:20 51°12.626 2°48.918 63.7 3.1 57 11.2
2006-04-19 08:30:25 51°12.628 2°48.924 63.5 3.1 56 11.1
2006-04-19 08:30:29 51°12.63 2°48.928 63.4 3.1 56 11.1
2006-04-19 08:30:34 51°12.632 2°48.934 63.2 3.1 57 11.2
2006-04-19 08:30:40 51°12.636 2°48.941 63.1 3.1 55 11.2
2006-04-19 08:30:44 51°12.638 2°48.945 62.9 3.1 55 11.2
2006-04-19 08:30:50 51°12.641 2°48.952 62.7 3.1 55 11.2
2006-04-19 08:30:54 51°12.642 2°48.956 62.5 3.1 55 11.2
2006-04-19 08:31:00 51°12.646 2°48.963 62.4 3.1 55 11.2
2006-04-19 08:31:05 51°12.648 2°48.969 62.3 3.1 54 11.2
2006-04-19 08:31:10 51°12.651 2°48.974 62.1 3.1 54 11.2
2006-04-19 08:31:14 51°12.653 2°48.979 61.9 3.1 54 11.2
2006-04-19 08:31:20 51°12.656 2°48.985 61.8 3.1 54 11.1
2006-04-19 08:31:24 51°12.658 2°48.989 61.8 3.1 54 11.2
2006-04-19 08:31:29 51°12.661 2°48.995 61.8 3.1 56 11.2
2006-04-19 08:31:34 51°12.663 2°49 61.6 3.1 54 11.2
2006-04-19 08:31:39 51°12.666 2°49.006 61.5 3.1 54 11.1
2006-04-19 08:31:44 51°12.668 2°49.011 61.4 3.1 53 11.1
2006-04-19 08:31:50 51°12.671 2°49.018 61.3 3.1 55 11.1
2006-04-19 08:31:54 51°12.673 2°49.022 61.2 3.1 53 11.1
2006-04-19 08:31:59 51°12.675 2°49.028 61.3 3.1 54 11.1
2006-04-19 08:32:05 51°12.678 2°49.035 61.3 3.1 54 11.2
2006-04-19 08:32:10 51°12.68 2°49.04 61.5 3.1 55 11.2
2006-04-19 08:32:15 51°12.683 2°49.046 61.6 3.1 55 11.2
2006-04-19 08:32:19 51°12.685 2°49.05 61.6 3.1 55 11.1
2006-04-19 08:32:24 51°12.687 2°49.056 61.7 3.1 55 11.2
2006-04-19 08:32:30 51°12.69 2°49.063 62 3.1 54 11.2
2006-04-19 08:32:34 51°12.692 2°49.067 61.9 3.1 54 11.2
2006-04-19 08:32:40 51°12.695 2°49.074 61.9 3.1 54 11.1
2006-04-19 08:32:44 51°12.697 2°49.078 61.8 3.1 54 11.1
2006-04-19 08:32:50 51°12.701 2°49.085 61.8 3.1 54 11.1
2006-04-19 08:32:54 51°12.703 2°49.089 61.8 3.1 55 11.1
2006-04-19 08:33:00 51°12.705 2°49.097 61.9 3.1 54 11.1
2006-04-19 08:33:05 51°12.708 2°49.102 62.1 3.1 56 11.1
2006-04-19 08:33:10 51°12.71 2°49.108 62.1 3.1 54 11.1
2006-04-19 08:33:14 51°12.712 2°49.112 62.2 3.1 57 11.1
2006-04-19 08:33:20 51°12.715 2°49.119 62.1 3.1 55 11.1
2006-04-19 08:33:24 51°12.717 2°49.123 62.4 3.1 56 11.1
2006-04-19 08:33:30 51°12.72 2°49.13 62.4 3.1 55 11.1
2006-04-19 08:33:34 51°12.721 2°49.135 62.6 3.1 58 11.1
2006-04-19 08:33:40 51°12.724 2°49.142 62.6 3.1 54 11.1
2006-04-19 08:33:45 51°12.727 2°49.147 62.7 3.1 57 11.1
2006-04-19 08:33:50 51°12.729 2°49.153 62.8 3.1 56 11.1
2006-04-19 08:33:54 51°12.731 2°49.158 62.9 3.1 57 11.1
2006-04-19 08:34:00 51°12.734 2°49.165 63 3.2 56 11.1
2006-04-19 08:34:04 51°12.736 2°49.169 63.1 3.1 57 11.1
2006-04-19 08:34:10 51°12.739 2°49.176 63.3 3.1 56 11.1
2006-04-19 08:34:14 51°12.741 2°49.181 63.1 3.1 56 11.1
2006-04-19 08:34:20 51°12.744 2°49.188 63.1 3.1 57 11.1
2006-04-19 08:34:25 51°12.746 2°49.194 63.1 3.1 56 11
2006-04-19 08:34:30 51°12.748 2°49.199 63 3.1 56 11.1
2006-04-19 08:34:34 51°12.75 2°49.204 62.9 3.1 56 11.1
2006-04-19 08:34:40 51°12.753 2°49.211 62.8 3.1 56 11
2006-04-19 08:34:44 51°12.755 2°49.216 62.4 3.1 56 11
2006-04-19 08:34:50 51°12.758 2°49.223 62.4 3.2 56 11
2006-04-19 08:34:54 51°12.76 2°49.227 62.4 3.1 56 11
2006-04-19 08:35:00 51°12.763 2°49.234 62.4 3.2 54 11
2006-04-19 08:35:05 51°12.766 2°49.24 62.4 3.2 55 11
2006-04-19 08:35:10 51°12.768 2°49.246 62.3 3.2 56 11
2006-04-19 08:35:15 51°12.771 2°49.252 62.3 3.1 56 11
2006-04-19 08:35:20 51°12.773 2°49.257 62.2 3.1 54 11
2006-04-19 08:35:25 51°12.775 2°49.263 62.2 3.1 56 11
2006-04-19 08:35:29 51°12.777 2°49.268 62.2 3.1 55 11
2006-04-19 08:35:34 51°12.78 2°49.273 62.2 3.1 56 10.9
2006-04-19 08:35:40 51°12.783 2°49.28 62.1 3.1 54 11
2006-04-19 08:35:45 51°12.785 2°49.286 62 3.2 56 10.9
2006-04-19 08:35:49 51°12.787 2°49.29 61.9 3.1 54 11
2006-04-19 08:35:54 51°12.79 2°49.296 61.7 3.1 56 11
2006-04-19 08:36:00 51°12.792 2°49.303 61.6 3.1 55 11
2006-04-19 08:36:05 51°12.795 2°49.309 61.6 3.1 54 11
2006-04-19 08:36:10 51°12.798 2°49.314 61.6 3.1 54 11
2006-04-19 08:36:14 51°12.8 2°49.319 61.4 3.1 55 11
2006-04-19 08:36:20 51°12.803 2°49.326 61.4 3.1 55 11
2006-04-19 08:36:25 51°12.805 2°49.331 61.4 3.1 55 11
2006-04-19 08:36:30 51°12.808 2°49.337 61.4 3.1 54 11
2006-04-19 08:36:35 51°12.81 2°49.343 61.3 3.1 55 11
2006-04-19 08:36:39 51°12.812 2°49.347 61.3 3.1 56 11
2006-04-19 08:36:45 51°12.815 2°49.354 61.2 3.1 54 10.9
2006-04-19 08:36:50 51°12.818 2°49.359 60.9 3.1 54 10.9
2006-04-19 08:36:54 51°12.82 2°49.364 60.2 3.2 54 10.9
2006-04-19 08:37:00 51°12.823 2°49.37 59.7 3.1 54 10.9
2006-04-19 08:37:04 51°12.825 2°49.375 59.2 3.1 52 11
2006-04-19 08:37:10 51°12.828 2°49.381 58.4 3.1 52 11
2006-04-19 08:37:14 51°12.83 2°49.385 58 3.1 50 11
2006-04-19 08:37:20 51°12.834 2°49.392 57.3 3.1 50 11
2006-04-19 08:37:24 51°12.836 2°49.396 56.8 3.1 51 10.9
2006-04-19 08:37:30 51°12.839 2°49.402 56.2 3.1 47 10.9
2006-04-19 08:37:35 51°12.842 2°49.407 55.6 3.1 49 11
2006-04-19 08:37:40 51°12.845 2°49.412 54.9 3.1 48 11
2006-04-19 08:37:44 51°12.847 2°49.416 54.5 3.1 48 11.1
2006-04-19 08:37:49 51°12.85 2°49.421 54 3.1 46 10.9
2006-04-19 08:37:55 51°12.854 2°49.427 53.6 3.1 46 11
2006-04-19 08:38:00 51°12.857 2°49.432 53.1 3.1 46 11
2006-04-19 08:38:05 51°12.86 2°49.437 53.1 3.1 45 11
2006-04-19 08:38:09 51°12.862 2°49.44 52.9 3 46 11
2006-04-19 08:38:14 51°12.865 2°49.446 53.3 3.1 47 11
2006-04-19 08:38:20 51°12.868 2°49.452 54 3.1 48 10.9
2006-04-19 08:38:25 51°12.871 2°49.457 56 3.1 50 11
2006-04-19 08:38:30 51°12.873 2°49.462 58.9 3 53 10.9
2006-04-19 08:38:34 51°12.875 2°49.467 62 3 57 11
2006-04-19 08:38:40 51°12.877 2°49.474 65.4 3 61 10.9
2006-04-19 08:38:45 51°12.879 2°49.48 67.4 3.1 63 11
2006-04-19 08:38:50 51°12.881 2°49.487 69.7 3.2 67 10.9
2006-04-19 08:38:54 51°12.883 2°49.492 71.3 3.4 67 10.9
2006-04-19 08:38:59 51°12.884 2°49.499 72.4 3.5 70 10.9
2006-04-19 08:39:05 51°12.886 2°49.508 72.8 3.6 69 10.9
2006-04-19 08:39:10 51°12.888 2°49.516 73.1 3.7 69 10.9
2006-04-19 08:39:14 51°12.89 2°49.523 73 3.8 69 10.9
2006-04-19 08:39:20 51°12.892 2°49.532 73 3.8 69 10.9
2006-04-19 08:39:25 51°12.894 2°49.54 72.8 3.9 70 10.9
2006-04-19 08:39:30 51°12.896 2°49.548 72.7 4 69 10.9
2006-04-19 08:39:34 51°12.897 2°49.555 72.7 4 68 11
2006-04-19 08:39:40 51°12.9 2°49.565 72.4 4 69 10.9
2006-04-19 08:39:45 51°12.902 2°49.573 72 4 69 10.9
2006-04-19 08:39:49 51°12.904 2°49.579 71.4 4 67 10.9
2006-04-19 08:39:55 51°12.906 2°49.589 71.1 4 66 10.9
2006-04-19 08:40:00 51°12.908 2°49.598 70.6 4.1 66 10.9
2006-04-19 08:40:04 51°12.91 2°49.604 70 4.1 68 10.9
2006-04-19 08:40:09 51°12.912 2°49.612 69.8 4.1 66 10.9
2006-04-19 08:40:15 51°12.914 2°49.623 72.2 4.1 72 10.9
2006-04-19 08:40:20 51°12.915 2°49.631 75.5 4 77 10.9
2006-04-19 08:40:25 51°12.916 2°49.64 80.4 4 82 10.9
2006-04-19 08:40:30 51°12.916 2°49.649 85 4 86 10.9
2006-04-19 08:40:34 51°12.916 2°49.656 88.2 4 88 10.9
2006-04-19 08:40:40 51°12.916 2°49.667 90.7 4 92 10.9
2006-04-19 08:40:44 51°12.915 2°49.674 92 4 93 10.9
2006-04-19 08:40:50 51°12.915 2°49.684 93.8 4 96 10.9
2006-04-19 08:40:54 51°12.914 2°49.692 95.9 4 97 10.8
2006-04-19 08:41:00 51°12.913 2°49.702 97.2 4 100 10.9
2006-04-19 08:41:05 51°12.911 2°49.711 99.4 4.1 102 10.8
2006-04-19 08:41:10 51°12.91 2°49.72 100.9 4.1 104 10.8
2006-04-19 08:41:14 51°12.909 2°49.727 102.8 4.2 107 10.8
2006-04-19 08:41:20 51°12.906 2°49.737 104.5 4.2 109 10.7
2006-04-19 08:41:25 51°12.904 2°49.746 106.5 4.2 111 10.7
2006-04-19 08:41:30 51°12.902 2°49.755 108 4.2 113 10.7
2006-04-19 08:41:34 51°12.9 2°49.761 109.9 4.2 113 10.7
2006-04-19 08:41:40 51°12.897 2°49.771 111.6 4.2 118 10.7
2006-04-19 08:41:44 51°12.894 2°49.778 113.4 4.3 118 10.6
2006-04-19 08:41:50 51°12.891 2°49.788 115.8 4.4 120 10.7
2006-04-19 08:41:54 51°12.888 2°49.795 117.5 4.4 122 10.7
2006-04-19 08:42:00 51°12.884 2°49.805 118.8 4.5 123 10.6
2006-04-19 08:42:04 51°12.881 2°49.812 120.3 4.6 125 10.6
2006-04-19 08:42:09 51°12.877 2°49.82 121.2 4.7 124 10.5
2006-04-19 08:42:14 51°12.873 2°49.829 121.7 4.7 126 10.6
2006-04-19 08:42:20 51°12.869 2°49.838 121.9 4.5 127 10.5
2006-04-19 08:42:25 51°12.865 2°49.846 122.4 4.4 126 10.6
2006-04-19 08:42:30 51°12.862 2°49.854 122.9 4.3 128 10.6
2006-04-19 08:42:35 51°12.858 2°49.861 123.1 4.2 127 10.5
2006-04-19 08:42:40 51°12.855 2°49.868 123.2 4.2 127 10.5
2006-04-19 08:42:45 51°12.851 2°49.875 122.3 4 128 10.5
2006-04-19 08:42:49 51°12.849 2°49.881 121.3 3.9 123 10.5
2006-04-19 08:42:54 51°12.846 2°49.888 119.7 3.8 124 10.4
2006-04-19 08:42:59 51°12.844 2°49.895 117.1 3.6 120 10.4
2006-04-19 08:43:05 51°12.841 2°49.903 113.2 3.5 117 10.4
2006-04-19 08:43:10 51°12.84 2°49.91 108.6 3.3 109 10.4
2006-04-19 08:43:14 51°12.839 2°49.915 103.5 3.1 106 10.4
2006-04-19 08:43:20 51°12.839 2°49.923 97.2 3 99 10.4